nws-alerts: Checking more than four warning/county codes can delay the loading of your pages. You should use a cron job to get the data.

Nearby METAR Weather Reports

 

KDMA - Davis/Tucson, Arizona, USA
Distance from station: W 21mi, 34km
Updated: 10/22/2017 12:55pm
Clear
Clear
 Wind from varies
Wind: varies 3 mph , 6 km/h
Temperature: 88°F , 31°C
Dew Point: 27°F , -3°C
Humidity: 11%
Barometer: 30.16 inHg , 1021.3 hPa
Clouds: Clear
Visibility: 10 miles , 16 km
2017/10/22 19:55 KDMA 221955Z VRB03KT 10SM CLR 31/M03 A3016 RMK AO2A SLP180 WND DATA ESTMD/ ALSTG ESTMD $
KTUS - Tucson, Arizona, USA
Distance from station: W 26mi, 42km
Updated: 10/22/2017 12:53pm
Clear
Clear
 Wind from varies
Wind: varies 5 mph , 7 km/h
Temperature: 88°F , 31°C
Dew Point: 28°F , -2°C
Humidity: 12%
Barometer: 30.19 inHg , 1022.4 hPa
Clouds: Clear
Visibility: 10 miles , 16 km
2017/10/22 19:53 KTUS 221953Z VRB04KT 10SM CLR 31/M02 A3019 RMK AO2 SLP183 T03061017
 
KALK - Pioneer Airfield, Arizona, USA
Distance from station: S 37mi, 60km
Updated: 10/22/2017 12:56pm
Clear
Clear
 Wind from ESE
Wind: ESE 7 mph , 11 km/h
Temperature: 79°F , 26°C
Dew Point: 23°F , -5°C
Humidity: 12%
Barometer: 30.31 inHg , 1026.4 hPa
Clouds: Clear
Visibility: 10 miles , 16 km
2017/10/22 19:56 KALK 221956Z AUTO 11006KT 10SM CLR 26/M05 A3031 RMK AO2 SLP184 T02611050
KRYN - Tucson/Ryan Fld, Arizona, USA
Distance from station: W 39mi, 62km
Updated: 10/22/2017 12:49pm

 Wind from calm
Wind: Calm
2017/10/22 19:49 KRYN 221949Z 00000KT 10 CLR 30/M01 A3019
 
KFHU - Fort Huachuca, Arizona, USA
Distance from station: SSE 39mi, 63km
Updated: 10/22/2017 1:23pm
Clear
Clear
 Wind from calm
Wind: Calm
Temperature: 79°F , 26°C
Dew Point: 23°F , -5°C
Humidity: 12%
Barometer: 30.29 inHg , 1025.7 hPa
Clouds: Clear
Visibility: 10 miles , 16 km
2017/10/22 20:23 KFHU 222023Z AUTO 00000KT 10SM CLR 26/M05 A3029 RMK AO2 SLP198
KOLS - Nogales, Arizona, USA
Distance from station: SSW 54mi, 86km
Updated: 10/22/2017 12:54pm
Clear
Clear
 Wind from varies
Wind: varies 5 mph , 7 km/h
Temperature: 86°F , 30°C
Dew Point: 25°F , -4°C
Humidity: 11%
Barometer: 30.23 inHg , 1023.7 hPa
Clouds: Clear
Visibility: 10 miles , 16 km
2017/10/22 19:54 KOLS 221954Z AUTO VRB04KT 10SM CLR 30/M04 A3023 RMK AO2 SLP182 T03001039 TSNO
 
KDUG - Douglas Bisbee, Arizona, USA
Distance from station: SE 71mi, 114km
Updated: 10/22/2017 12:56pm
Clear
Clear
 Wind from varies
Wind: varies 3 mph , 6 km/h
Temperature: 79°F , 26°C
Dew Point: 27°F , -3°C
Humidity: 15%
Barometer: 30.27 inHg , 1025.1 hPa
Clouds: Clear
Visibility: 10 miles , 16 km
2017/10/22 19:56 KDUG 221956Z AUTO VRB03KT 10SM CLR 26/M03 A3027 RMK AO2 SLP197 T02611028
KSAD - Safford, Arizona, USA
Distance from station: NE 71mi, 114km
Updated: 10/22/2017 12:51pm
Clear
Clear
 Wind from calm
Wind: Calm
Temperature: 81°F , 27°C
Dew Point: 16°F , -9°C
Humidity: 9%
Barometer: 30.23 inHg , 1023.7 hPa
Clouds: Clear
Visibility: 10 miles , 16 km
2017/10/22 19:51 KSAD 221951Z AUTO 00000KT 10SM CLR 27/M09 A3023 RMK AO2 SLP201 T02671094 TSNO
 
KCGZ - Casa Granda, Arizona, USA
Distance from station: NW 93mi, 149km
Updated: 09/16/2017 8:56pm
NOT Current
Clear
Clear
 Wind from W
Wind: W 8 mph , 13 km/h
Temperature: 84°F , 29°C
Dew Point: 46°F , 8°C
Humidity: 27%
Barometer: 29.83 inHg , 1010.2 hPa
Clouds: Clear
Visibility: 10 miles , 16 km
2017/09/17 03:56 KCGZ 170356Z AUTO 27007KT 10SM CLR 29/08 A2983 RMK AO2 SLP086 T02940083 PNO $
KLSB - Lordsburg, New Mexico, USA
Distance from station: E 106mi, 171km
Updated: 08/24/2016 4:15am
NOT Current
Clear
Clear
 Wind from calm
Wind: Calm
Temperature: 61°F , 16°C
Dew Point: 43°F , 6°C
Humidity: 52%
Barometer: 30.15 inHg , 1021 hPa
Clouds: Clear
Visibility: 10 miles , 16 km
2016/08/24 11:15 KLSB 241115Z AUTO 00000KT 10SM CLR 16/06 A3015 RMK AO2
 
KPHX - Phoenix/Sky Hrbr, Arizona, USA
Distance from station: NW 126mi, 202km
Updated: 10/22/2017 12:51pm
Clear
Clear
 Wind from varies
Wind: varies 6 mph , 9 km/h
Temperature: 84°F , 29°C
Dew Point: 27°F , -3°C
Humidity: 12%
Barometer: 30.13 inHg , 1020.3 hPa
Clouds: Clear
Visibility: 10 miles , 16 km
2017/10/22 19:51 KPHX 221951Z VRB05KT 10SM CLR 29/M03 A3013 RMK AO2 SLP187 T02941028
KGXF - Gila Bend (aaf), Arizona, USA
Distance from station: WNW 139mi, 223km
Updated: 10/21/2017 6:55pm
NOT Current
Clear
Clear
 Wind from SSW
Wind: SSW 1 mph , 2 km/h
Temperature: 79°F , 26°C
Dew Point: 39°F , 4°C
Humidity: 24%
Barometer: 29.99 inHg , 1015.6 hPa
Clouds: Clear
Visibility: 10 miles , 16 km
2017/10/22 01:55 KGXF 220155Z 20001KT 10SM CLR 26/04 A2999 RMK SLPNO WND DATA ALSTG ESTMD LAST
 
KSVC - Silver City, New Mexico, USA
Distance from station: ENE 142mi, 228km
Updated: 10/22/2017 1:35pm
Clear
Clear
 Wind from calm
Wind: Calm
Temperature: 73°F , 23°C
Dew Point: 14°F , -10°C
Humidity: 10%
Barometer: 30.34 inHg , 1027.4 hPa
Clouds: Clear
Visibility: 10 miles , 16 km
2017/10/22 20:35 KSVC 222035Z AUTO 00000KT 10SM CLR 23/M10 A3034 RMK AO2 T02311105
KLUF - Luke Afb/Glendal, Arizona, USA
Distance from station: NW 144mi, 232km
Updated: 10/22/2017 12:58pm
Clear
Clear
 Wind from NW
Wind: NW 5 mph , 7 km/h
Temperature: 88°F , 31°C
Dew Point: 19°F , -7°C
Humidity: 8%
Barometer: 30.12 inHg , 1020 hPa
Clouds: Clear
Visibility: 10 miles , 16 km
2017/10/22 19:58 KLUF 221958Z AUTO 31004KT 10SM CLR 31/M07 A3012 RMK AO2 SLP189 T03101071 $